Kuching, Malaysia

7:25 AM MYT on September 02, 2014 (GMT +0800)
Kuching International | Change Station
CLOSE
Current Station
Airport
Location: Kuching,
Elevation: 89 ft
Nearby Weather Stations

Elev 89 ft 1.48 °N, 110.33 °E | Updated 25 minutes ago

Mostly Cloudy
Mostly Cloudy
79 °F
Feels Like 79 °F
N
1
Wind Variable Wind from NNW

Today
High -- | Low -- °F
--% Chance of Precip.
Yesterday
High -- | Low -- °F
Precip. -- in
6:34 AM 6:42 PM
Waxing Crescent, 45% visible
Pressure 29.83 in
Visibility 5.0 miles
Clouds Scattered Clouds 2000 ft
Scattered Clouds 15000 ft
Mostly Cloudy 30000 ft
Dew Point 77 °F
Humidity 94%
Rainfall 0.00 in
Snow Depth Not available.
UV 0 out of 12
Pollen Not available.
Air Quality Not available.
Flu Activity Not available.
METAR WBGG 012300Z 34001KT 8000 SCT020 SCT150 BKN300 26/25 Q1010 NOSIG

More Conditions Fewer Conditions

Pressure 29.83 in
Visibility 5.0 miles
Clouds Scattered Clouds 2000 ft
Scattered Clouds 15000 ft
Mostly Cloudy 30000 ft
Dew Point 77 °F
Humidity 94%
Rainfall 0.00 in
Snow Depth Not available.
UV 0 out of 12
Pollen Not available.
Air Quality Not available.
Flu Activity Not available.
METAR WBGG 012300Z 34001KT 8000 SCT020 SCT150 BKN300 26/25 Q1010 NOSIG

More Conditions Fewer Conditions

10-Day Weather Forecast

Almanac

Astronomy

Sep. 02, 2014 Rise Set
Actual Time 6:34 AM MYT 6:42 PM MYT
Civil Twilight 6:13 AM MYT 7:03 PM MYT
Nautical Twilight 5:49 AM MYT 7:27 PM MYT
Astronomical Twilight 5:24 AM MYT 7:51 PM MYT
Moon 12:15 PM MYT (9/2) No Moon Set
Length of Visible Light 12h 49m
Length of Day
12h 08m
Tomorrow will be 0m 5s shorter.
Waxing Crescent, 45% of the Moon is Illuminated
Sep 1
Waxing Crescent
Sep 2
First Quarter
Sep 8
Full
Sep 15
Last Quarter
Sep 24
New

Yesterday's Extremes

Country Highs Country Lows

Community

WunderPhotos

Upload Photos

1,749,430 photos uploaded!

Nearby

Snow Depth

Not available.

Earthquake Activity

City Distance Mag. Time & Date
No recent earthquake activity has been reported nearby.
Minimum magnitude displayed is 2.5.

Coastal Water Temperatures

Place Temperature
No Stations Reporting

Nearby Weather Stations